createdAt,value
2019-02-28T00:00:37.187Z,101266.71
2019-02-28T00:03:05.701Z,101265.06
2019-02-28T00:05:33.866Z,101261.05
2019-02-28T00:08:02.056Z,101263.39
2019-02-28T00:10:30.849Z,101261.31
2019-02-28T00:12:59.590Z,101261.92
2019-02-28T00:15:29.670Z,101260.14
2019-02-28T00:17:57.959Z,101258.53
2019-02-28T00:20:26.129Z,101260.22
2019-02-28T00:22:54.640Z,101259.75
2019-02-28T00:25:22.821Z,101255.06
2019-02-28T00:27:52.724Z,101262.78
2019-02-28T00:30:20.901Z,101263.25
2019-02-28T00:32:49.339Z,101259.24
2019-02-28T00:35:17.530Z,101258.92
2019-02-28T00:37:45.994Z,101242.77
2019-02-28T00:40:14.331Z,101240.91
2019-02-28T00:42:42.527Z,101243.96
2019-02-28T00:45:13.070Z,101243.19
2019-02-28T00:47:41.549Z,101238.31
2019-02-28T00:50:09.881Z,101237.26
2019-02-28T00:52:38.069Z,101232.50
2019-02-28T00:55:15.258Z,101225.94
2019-02-28T00:57:43.741Z,101232.31
2019-02-28T01:00:15.156Z,101230.83
2019-02-28T01:02:43.596Z,101232.66
2019-02-28T01:05:11.834Z,101229.14
2019-02-28T01:07:40.026Z,101220.86
2019-02-28T01:10:10.554Z,101222.96
2019-02-28T01:12:38.726Z,101217.39
2019-02-28T01:15:14.742Z,101220.72
2019-02-28T01:17:42.901Z,101207.43
2019-02-28T01:20:14.990Z,101204.94
2019-02-28T01:22:42.038Z,101199.09
2019-02-28T01:25:13.297Z,101198.06
2019-02-28T01:27:41.470Z,101196.53
2019-02-28T01:30:12.190Z,101193.51
2019-02-28T01:32:40.357Z,101190.38
2019-02-28T01:35:09.184Z,101183.23
2019-02-28T01:37:37.363Z,101184.33
2019-02-28T01:40:08.111Z,101185.82
2019-02-28T01:42:36.299Z,101179.05
2019-02-28T01:45:07.052Z,101178.45
2019-02-28T01:47:36.281Z,101176.76
2019-02-28T01:50:06.289Z,101177.60
2019-02-28T01:52:34.477Z,101173.98
2019-02-28T01:55:02.654Z,101175.50
2019-02-28T01:57:30.865Z,101178.52
2019-02-28T01:59:59.059Z,101169.19
2019-02-28T02:02:27.225Z,101173.13
2019-02-28T02:04:55.401Z,101174.05
2019-02-28T02:07:23.577Z,101172.94
2019-02-28T02:09:51.770Z,101166.28
2019-02-28T02:12:19.949Z,101163.09
2019-02-28T02:14:48.458Z,101158.98
2019-02-28T02:17:16.683Z,101154.34
2019-02-28T02:19:44.881Z,101151.05
2019-02-28T02:22:13.050Z,101152.86
2019-02-28T02:24:41.218Z,101148.41
2019-02-28T02:27:09.409Z,101147.73
2019-02-28T02:29:37.577Z,101142.81
2019-02-28T02:32:05.779Z,101136.66
2019-02-28T02:34:33.938Z,101136.20
2019-02-28T02:37:02.135Z,101131.31
2019-02-28T02:39:30.322Z,101113.25
2019-02-28T02:41:58.515Z,101113.98
2019-02-28T02:44:30.663Z,101111.73
2019-02-28T02:46:57.009Z,101117.92
2019-02-28T02:49:25.366Z,101106.94
2019-02-28T02:51:53.533Z,101106.19
2019-02-28T02:54:21.742Z,101102.22
2019-02-28T02:56:49.987Z,101101.32
2019-02-28T02:59:18.197Z,101101.43
2019-02-28T03:01:46.377Z,101094.95
2019-02-28T03:04:21.393Z,101096.59
2019-02-28T03:06:45.982Z,101091.34
2019-02-28T03:09:14.705Z,101088.47
2019-02-28T03:11:42.894Z,101085.71
2019-02-28T03:14:11.129Z,101085.34
2019-02-28T03:16:39.351Z,101081.27
2019-02-28T03:19:07.567Z,101085.29
2019-02-28T03:21:35.754Z,101084.40
2019-02-28T03:24:04.093Z,101089.59
2019-02-28T03:26:32.277Z,101086.98
2019-02-28T03:29:07.628Z,101088.47
2019-02-28T03:31:30.386Z,101084.64
2019-02-28T03:34:10.400Z,101086.45
2019-02-28T03:36:28.442Z,101090.84
2019-02-28T03:38:56.642Z,101087.73
2019-02-28T03:41:24.895Z,101091.80
2019-02-28T03:43:53.082Z,101089.76
2019-02-28T03:46:21.272Z,101091.66
2019-02-28T03:48:49.451Z,101084.53
2019-02-28T03:51:17.640Z,101082.77
2019-02-28T03:53:45.806Z,101082.09
2019-02-28T03:56:14.857Z,101083.17
2019-02-28T03:58:43.910Z,101089.59
2019-02-28T04:01:12.137Z,101096.08
2019-02-28T04:03:40.326Z,101096.09
2019-02-28T04:06:08.515Z,101102.26
2019-02-28T04:08:36.688Z,101098.31
2019-02-28T04:11:04.866Z,101092.06
2019-02-28T04:13:33.361Z,101094.92
2019-02-28T04:16:08.588Z,101093.63
2019-02-28T04:18:31.457Z,101096.16
2019-02-28T04:20:59.614Z,101093.58
2019-02-28T04:23:35.517Z,101089.58
2019-02-28T04:25:57.943Z,101081.13
2019-02-28T04:28:26.305Z,101081.27
2019-02-28T04:30:54.533Z,101078.23
2019-02-28T04:33:22.710Z,101070.66
2019-02-28T04:35:50.891Z,101075.11
2019-02-28T04:38:20.841Z,101072.19
2019-02-28T04:40:48.960Z,101076.02
2019-02-28T04:43:17.131Z,101078.77
2019-02-28T04:45:45.318Z,101080.00
2019-02-28T04:48:14.618Z,101078.22
2019-02-28T04:50:42.934Z,101075.84
2019-02-28T04:53:11.126Z,101070.52
2019-02-28T04:55:39.329Z,101073.84
2019-02-28T04:58:07.490Z,101065.82
2019-02-28T05:00:37.832Z,101064.98
2019-02-28T05:03:05.902Z,101063.23
2019-02-28T05:05:34.081Z,101064.49
2019-02-28T05:08:05.767Z,101061.10
2019-02-28T05:10:32.498Z,101061.44
2019-02-28T05:13:00.977Z,101068.31
2019-02-28T05:15:29.458Z,101076.09
2019-02-28T05:17:57.669Z,101079.30
2019-02-28T05:20:25.841Z,101079.92
2019-02-28T05:22:54.034Z,101072.94
2019-02-28T05:25:22.195Z,101072.74
2019-02-28T05:27:50.387Z,101066.84
2019-02-28T05:30:19.844Z,101067.80
2019-02-28T05:32:48.172Z,101070.41
2019-02-28T05:35:16.359Z,101071.53
2019-02-28T05:37:48.208Z,101073.24
2019-02-28T05:40:15.567Z,101074.08
2019-02-28T05:42:44.076Z,101071.66
2019-02-28T05:45:14.579Z,101070.05
2019-02-28T05:47:46.818Z,101072.79
2019-02-28T05:50:16.623Z,101071.56
2019-02-28T05:52:43.110Z,101071.61
2019-02-28T05:55:11.302Z,101070.34
2019-02-28T05:57:43.248Z,101066.87
2019-02-28T06:00:13.045Z,101069.87
2019-02-28T06:02:42.627Z,101068.44
2019-02-28T06:05:12.752Z,101057.80
2019-02-28T06:07:40.743Z,101062.62
2019-02-28T06:10:11.694Z,101057.80
2019-02-28T06:12:40.439Z,101061.88
2019-02-28T06:15:11.713Z,101060.31
2019-02-28T06:17:39.901Z,101060.15
2019-02-28T06:20:10.008Z,101056.24
2019-02-28T06:22:38.202Z,101059.92
2019-02-28T06:25:08.725Z,101058.19
2019-02-28T06:27:41.569Z,101057.15
2019-02-28T06:30:17.306Z,101060.02
2019-02-28T06:32:45.501Z,101063.50
2019-02-28T06:35:17.799Z,101060.89
2019-02-28T06:37:43.590Z,101057.19
2019-02-28T06:40:16.530Z,101060.69
2019-02-28T06:42:46.750Z,101047.08
2019-02-28T06:45:19.261Z,101054.17
2019-02-28T06:47:49.682Z,101054.78
2019-02-28T06:50:17.762Z,101060.64
2019-02-28T06:52:45.989Z,101058.03
2019-02-28T06:55:15.830Z,101056.43
2019-02-28T06:57:43.994Z,101059.84
2019-02-28T07:00:17.138Z,101069.50
2019-02-28T07:02:45.552Z,101066.99
2019-02-28T07:05:14.475Z,101059.55
2019-02-28T07:07:45.628Z,101058.22
2019-02-28T07:10:16.985Z,101057.03
2019-02-28T07:12:45.623Z,101056.21
2019-02-28T07:15:15.162Z,101050.36
2019-02-28T07:17:46.557Z,101056.16
2019-02-28T07:20:18.994Z,101050.33
2019-02-28T07:22:47.301Z,101046.43
2019-02-28T07:25:15.488Z,101046.96
2019-02-28T07:27:43.658Z,101044.89
2019-02-28T07:30:18.669Z,101045.83
2019-02-28T07:32:47.345Z,101046.28
2019-02-28T07:35:15.542Z,101043.27
2019-02-28T07:37:44.017Z,101042.92
2019-02-28T07:40:16.214Z,101038.20
2019-02-28T07:42:43.753Z,101038.09
2019-02-28T07:45:13.473Z,101032.48
2019-02-28T07:47:41.914Z,101033.25
2019-02-28T07:50:14.794Z,101036.91
2019-02-28T07:52:44.159Z,101039.68
2019-02-28T07:55:16.177Z,101034.08
2019-02-28T07:57:44.424Z,101039.53
2019-02-28T08:00:18.157Z,101033.53
2019-02-28T08:02:45.699Z,101035.46
2019-02-28T08:05:14.281Z,101034.01
2019-02-28T08:07:42.586Z,101031.77
2019-02-28T08:10:19.093Z,101025.16
2019-02-28T08:12:47.280Z,101019.27
2019-02-28T08:15:22.286Z,101013.77
2019-02-28T08:17:48.433Z,101005.89
2019-02-28T08:20:16.749Z,101002.32
2019-02-28T08:22:44.929Z,101006.15
2019-02-28T08:25:14.773Z,101009.89
2019-02-28T08:27:43.302Z,101009.63
2019-02-28T08:30:26.307Z,101006.80
2019-02-28T08:32:54.506Z,100997.50
2019-02-28T08:35:22.987Z,100987.55
2019-02-28T08:37:55.695Z,100984.77
2019-02-28T08:40:26.361Z,100993.80
2019-02-28T08:42:53.946Z,100999.68
2019-02-28T08:45:22.129Z,100997.97
2019-02-28T08:47:55.382Z,100994.64
2019-02-28T08:50:24.320Z,100996.17
2019-02-28T08:52:54.163Z,100994.27
2019-02-28T08:55:28.830Z,100996.41
2019-02-28T08:57:55.856Z,100991.39
2019-02-28T09:00:23.969Z,100996.84
2019-02-28T09:02:52.977Z,100997.98
2019-02-28T09:05:25.496Z,100989.14
2019-02-28T09:07:52.199Z,100989.25
2019-02-28T09:10:24.242Z,100995.24
2019-02-28T09:12:52.422Z,101002.87
2019-02-28T09:15:21.089Z,101004.55
2019-02-28T09:17:49.350Z,100999.21
2019-02-28T09:20:17.915Z,100999.92
2019-02-28T09:22:46.089Z,100994.48
2019-02-28T09:25:22.021Z,100993.16
2019-02-28T09:27:48.952Z,100973.45
2019-02-28T09:30:29.696Z,100971.81
2019-02-28T09:32:59.081Z,100970.52
2019-02-28T09:35:27.272Z,100962.11
2019-02-28T09:37:55.469Z,100950.02
2019-02-28T09:40:25.661Z,100938.42
2019-02-28T09:42:53.823Z,100948.05
2019-02-28T09:45:23.943Z,100942.33
2019-02-28T09:47:52.205Z,100946.45
2019-02-28T09:50:22.449Z,100948.77
2019-02-28T09:52:51.617Z,100946.56
2019-02-28T09:55:20.105Z,100947.17
2019-02-28T09:57:53.706Z,100947.61
2019-02-28T10:00:22.712Z,100954.53
2019-02-28T10:02:52.958Z,100951.23
2019-02-28T10:05:20.895Z,100949.37
2019-02-28T10:07:49.069Z,100941.11
2019-02-28T10:10:25.189Z,100942.15
2019-02-28T10:12:53.717Z,100946.39
2019-02-28T10:15:25.254Z,100943.13
2019-02-28T10:17:53.442Z,100946.02
2019-02-28T10:20:33.085Z,100943.27
2019-02-28T10:23:01.449Z,100937.30
2019-02-28T10:25:29.650Z,100941.47
2019-02-28T10:28:01.683Z,100937.20
2019-02-28T10:30:32.105Z,100933.20
2019-02-28T10:32:58.243Z,100930.73
2019-02-28T10:35:26.462Z,100918.99
2019-02-28T10:37:58.547Z,100923.73
2019-02-28T10:40:31.547Z,100924.85
2019-02-28T10:42:59.729Z,100929.23
2019-02-28T10:45:28.259Z,100930.69
2019-02-28T10:47:56.457Z,100935.39
2019-02-28T10:50:33.514Z,100935.27
2019-02-28T10:53:05.562Z,100934.08
2019-02-28T10:55:32.206Z,100939.02
2019-02-28T10:58:00.469Z,100933.15
2019-02-28T11:00:33.667Z,100930.77
2019-02-28T11:03:02.374Z,100936.79
2019-02-28T11:05:32.605Z,100937.30
2019-02-28T11:08:01.553Z,100933.88
2019-02-28T11:10:35.445Z,100934.58
2019-02-28T11:13:02.083Z,100936.53
2019-02-28T11:15:30.266Z,100942.82
2019-02-28T11:17:58.530Z,100932.27
2019-02-28T11:20:27.106Z,100925.66
2019-02-28T11:22:55.590Z,100920.95
2019-02-28T11:25:26.314Z,100921.47
2019-02-28T11:27:54.715Z,100919.02
2019-02-28T11:30:28.962Z,100913.14
2019-02-28T11:32:57.351Z,100913.48
2019-02-28T11:35:25.600Z,100900.20
2019-02-28T11:37:53.847Z,100896.66
2019-02-28T11:40:25.029Z,100893.20
2019-02-28T11:42:53.233Z,100897.42
2019-02-28T11:45:33.022Z,100901.65
2019-02-28T11:48:03.537Z,100905.22
2019-02-28T11:50:32.317Z,100922.59
2019-02-28T11:53:04.377Z,100908.06
2019-02-28T11:55:30.434Z,100903.25
2019-02-28T11:57:59.154Z,100900.06
2019-02-28T12:00:37.645Z,100900.74
2019-02-28T12:03:06.017Z,100893.31
2019-02-28T12:05:34.682Z,100897.02
2019-02-28T12:08:03.171Z,100905.00
2019-02-28T12:10:31.629Z,100900.64
2019-02-28T12:12:59.898Z,100899.34
2019-02-28T12:15:34.105Z,100909.07
2019-02-28T12:18:04.545Z,100915.31
2019-02-28T12:20:32.679Z,100901.08
2019-02-28T12:23:00.857Z,100897.97
2019-02-28T12:25:29.069Z,100900.34
2019-02-28T12:27:59.397Z,100898.36
2019-02-28T12:30:31.886Z,100890.22
2019-02-28T12:33:00.093Z,100886.30
2019-02-28T12:35:28.286Z,100883.84
2019-02-28T12:37:56.639Z,100882.11
2019-02-28T12:40:27.919Z,100871.09
2019-02-28T12:42:56.099Z,100857.42
2019-02-28T12:45:27.465Z,100865.14
2019-02-28T12:47:55.649Z,100870.33
2019-02-28T12:50:24.052Z,100868.09
2019-02-28T12:52:52.278Z,100874.52
2019-02-28T12:55:21.721Z,100878.81
2019-02-28T12:57:51.598Z,100884.09
2019-02-28T13:00:29.020Z,100881.59
2019-02-28T13:02:57.234Z,100891.61
2019-02-28T13:05:25.470Z,100891.10
2019-02-28T13:07:53.736Z,100891.55
2019-02-28T13:10:26.809Z,100896.09
2019-02-28T13:12:52.890Z,100909.41
2019-02-28T13:15:21.622Z,100900.12
2019-02-28T13:17:50.098Z,100904.47
2019-02-28T13:20:23.745Z,100900.72
2019-02-28T13:22:55.640Z,100911.81
2019-02-28T13:25:23.517Z,100916.70
2019-02-28T13:27:52.088Z,100924.91
2019-02-28T13:30:22.239Z,100932.11
2019-02-28T13:32:50.430Z,100933.62
2019-02-28T13:35:21.971Z,100936.73
2019-02-28T13:37:50.369Z,100937.36
2019-02-28T13:40:18.708Z,100941.17
2019-02-28T13:42:46.959Z,100934.52
2019-02-28T13:45:23.257Z,100954.87
2019-02-28T13:47:50.064Z,100955.05
2019-02-28T13:50:27.093Z,100967.80
2019-02-28T13:52:55.549Z,100969.69
2019-02-28T13:55:24.018Z,100980.84
2019-02-28T13:57:52.361Z,100960.41
2019-02-28T14:00:23.562Z,100999.95
2019-02-28T14:03:02.213Z,101000.27
2019-02-28T14:05:30.471Z,101012.52
2019-02-28T14:07:58.653Z,101002.28
2019-02-28T14:10:29.518Z,101003.14
2019-02-28T14:12:58.306Z,101007.45
2019-02-28T14:15:48.088Z,101013.54
2019-02-28T14:18:16.415Z,101019.95
2019-02-28T14:20:44.606Z,101019.73
2019-02-28T14:23:20.715Z,101025.56
2019-02-28T14:25:48.741Z,101021.44
2019-02-28T14:28:16.917Z,101024.73
2019-02-28T14:30:45.181Z,101025.23
2019-02-28T14:33:16.213Z,101022.50
2019-02-28T14:35:44.195Z,101024.86
2019-02-28T14:38:12.449Z,101025.64
2019-02-28T14:40:40.651Z,101025.54
2019-02-28T14:43:10.379Z,101018.69
2019-02-28T14:45:44.212Z,101011.21
2019-02-28T14:48:12.462Z,101015.16
2019-02-28T14:50:40.730Z,101012.12
2019-02-28T14:53:13.120Z,101016.10
2019-02-28T14:55:38.900Z,101016.47
2019-02-28T14:58:07.659Z,101014.50
2019-02-28T15:00:39.048Z,101015.67
2019-02-28T15:03:06.378Z,101020.69
2019-02-28T15:05:43.010Z,101013.00
2019-02-28T15:08:15.508Z,101014.28
2019-02-28T15:10:43.259Z,101013.28
2019-02-28T15:13:11.627Z,101009.55
2019-02-28T15:15:40.112Z,101002.73
2019-02-28T15:18:13.120Z,101004.52
2019-02-28T15:20:41.013Z,101004.62
2019-02-28T15:26:14.376Z,100985.17
2019-02-28T15:28:48.573Z,100982.65
2019-02-28T15:31:15.553Z,100979.00
2019-02-28T15:33:44.023Z,100983.86
2019-02-28T15:36:12.465Z,100981.24
2019-02-28T15:38:48.379Z,100977.57
2019-02-28T15:41:23.126Z,100981.92
2019-02-28T15:44:02.898Z,100980.88
2019-02-28T15:46:31.291Z,100970.02
2019-02-28T15:48:59.490Z,100974.56
2019-02-28T15:54:03.242Z,100975.11
2019-02-28T15:56:36.026Z,100969.66
2019-02-28T15:59:04.594Z,100972.64
2019-02-28T16:01:33.196Z,100972.67
2019-02-28T16:04:01.458Z,100970.00
2019-02-28T16:06:29.666Z,100969.02
2019-02-28T16:08:58.174Z,100973.22
2019-02-28T16:11:26.372Z,100969.88
2019-02-28T16:13:57.469Z,100962.30
2019-02-28T16:16:25.411Z,100963.77
2019-02-28T16:18:53.855Z,100959.25
2019-02-28T16:21:22.300Z,100950.39
2019-02-28T16:23:50.778Z,100949.83
2019-02-28T16:26:21.791Z,100953.10
2019-02-28T16:28:48.919Z,100955.92
2019-02-28T16:31:18.734Z,100952.65
2019-02-28T16:33:47.033Z,100951.52
2019-02-28T16:36:15.984Z,100947.52
2019-02-28T16:38:45.073Z,100938.44
2019-02-28T16:41:14.090Z,100938.16
2019-02-28T16:43:42.275Z,100939.00
2019-02-28T16:46:12.408Z,100937.40
2019-02-28T16:48:40.439Z,100944.42
2019-02-28T16:51:08.635Z,100939.38
2019-02-28T16:53:36.843Z,100940.33
2019-02-28T16:56:08.151Z,100941.30
2019-02-28T16:58:36.463Z,100940.69
2019-02-28T17:01:04.746Z,100944.06
2019-02-28T17:03:33.223Z,100934.49
2019-02-28T17:06:02.364Z,100932.98
2019-02-28T17:08:32.300Z,100937.81
2019-02-28T17:11:00.595Z,100931.98
2019-02-28T17:13:35.550Z,100925.02
2019-02-28T17:16:07.611Z,100918.74
2019-02-28T17:18:40.179Z,100919.22
2019-02-28T17:21:08.388Z,100921.30
2019-02-28T17:23:38.046Z,100920.61
2019-02-28T17:26:07.466Z,100926.52
2019-02-28T17:28:37.284Z,100929.97
2019-02-28T17:31:22.082Z,100932.10
2019-02-28T17:33:50.277Z,100929.88
2019-02-28T17:36:20.389Z,100934.15
2019-02-28T17:38:48.393Z,100931.89
2019-02-28T17:41:16.980Z,100928.65
2019-02-28T17:44:05.024Z,100924.87
2019-02-28T17:46:33.229Z,100925.42
2019-02-28T17:49:19.047Z,100926.53
2019-02-28T17:51:55.389Z,100923.55
2019-02-28T17:54:44.697Z,100924.08
2019-02-28T17:57:24.629Z,100923.76
2019-02-28T18:00:20.118Z,100919.95
2019-02-28T18:03:15.699Z,100916.62
2019-02-28T18:05:52.590Z,100922.50
2019-02-28T18:08:37.541Z,100923.00
2019-02-28T18:11:35.106Z,100918.96
2019-02-28T18:14:21.210Z,100921.41
2019-02-28T18:17:12.408Z,100919.94
2019-02-28T18:20:03.311Z,100923.70
2019-02-28T18:22:43.247Z,100922.77
2019-02-28T18:25:23.714Z,100912.85
2019-02-28T18:28:10.375Z,100901.33
2019-02-28T18:31:08.780Z,100895.52
2019-02-28T18:33:41.863Z,100892.22
2019-02-28T18:36:11.080Z,100890.30
2019-02-28T18:38:39.562Z,100897.78
2019-02-28T18:41:07.790Z,100900.38
2019-02-28T18:43:36.035Z,100901.11
2019-02-28T18:46:04.784Z,100902.00
2019-02-28T18:48:33.282Z,100896.98
2019-02-28T18:51:01.473Z,100891.13
2019-02-28T18:53:29.686Z,100895.25
2019-02-28T18:55:57.857Z,100889.78
2019-02-28T18:58:26.053Z,100888.79
2019-02-28T19:00:54.255Z,100892.61
2019-02-28T19:03:22.430Z,100893.02
2019-02-28T19:05:50.642Z,100892.12
2019-02-28T19:08:18.813Z,100891.48
2019-02-28T19:10:47.055Z,100887.94
2019-02-28T19:13:15.258Z,100883.45
2019-02-28T19:15:45.132Z,100881.50
2019-02-28T19:18:13.526Z,100879.06
2019-02-28T19:20:41.727Z,100870.33
2019-02-28T19:23:09.986Z,100870.77
2019-02-28T19:25:38.189Z,100865.23
2019-02-28T19:28:06.389Z,100863.64
2019-02-28T19:30:34.571Z,100862.60
2019-02-28T19:33:03.057Z,100862.92
2019-02-28T19:35:31.230Z,100868.03
2019-02-28T19:37:59.707Z,100867.95
2019-02-28T19:40:27.888Z,100864.63
2019-02-28T19:42:56.085Z,100861.80
2019-02-28T19:45:42.248Z,100867.55
2019-02-28T19:48:10.437Z,100862.16
2019-02-28T19:50:38.634Z,100854.20
2019-02-28T19:53:06.801Z,100854.52
2019-02-28T19:55:35.038Z,100849.39
2019-02-28T19:58:03.225Z,100841.22
2019-02-28T20:00:31.425Z,100841.58
2019-02-28T20:02:59.666Z,100837.31
2019-02-28T20:05:27.942Z,100834.20
2019-02-28T20:07:56.115Z,100825.34
2019-02-28T20:10:24.796Z,100823.77
2019-02-28T20:12:52.994Z,100830.36
2019-02-28T20:15:22.946Z,100827.95
2019-02-28T20:17:51.126Z,100822.42
2019-02-28T20:20:29.714Z,100815.86
2019-02-28T20:22:57.892Z,100816.92
2019-02-28T20:25:26.270Z,100814.36
2019-02-28T20:27:54.446Z,100813.09
2019-02-28T20:30:24.634Z,100809.19
2019-02-28T20:32:53.211Z,100806.39
2019-02-28T20:35:26.608Z,100805.00
2019-02-28T20:37:51.371Z,100809.78
2019-02-28T20:40:28.108Z,100806.61
2019-02-28T20:42:56.541Z,100809.02
2019-02-28T20:45:24.805Z,100807.50
2019-02-28T20:47:52.973Z,100805.95
2019-02-28T20:50:41.718Z,100802.95
2019-02-28T20:53:09.914Z,100798.33
2019-02-28T20:55:38.093Z,100806.43
2019-02-28T20:58:06.350Z,100804.05
2019-02-28T21:00:34.846Z,100802.14
2019-02-28T21:03:03.050Z,100809.77
2019-02-28T21:05:31.227Z,100814.95
2019-02-28T21:07:59.508Z,100812.61
2019-02-28T21:10:27.783Z,100803.88
2019-02-28T21:12:55.988Z,100803.09
2019-02-28T21:15:25.110Z,100800.75
2019-02-28T21:17:53.321Z,100801.14
2019-02-28T21:20:21.502Z,100793.75
2019-02-28T21:22:50.358Z,100794.39
2019-02-28T21:25:18.931Z,100792.08
2019-02-28T21:27:47.120Z,100793.13
2019-02-28T21:30:23.518Z,100792.08
2019-02-28T21:32:51.714Z,100795.02
2019-02-28T21:35:20.239Z,100795.22
2019-02-28T21:37:49.025Z,100800.21
2019-02-28T21:40:19.452Z,100791.70
2019-02-28T21:42:47.653Z,100789.43
2019-02-28T21:45:17.905Z,100786.16
2019-02-28T21:47:46.428Z,100785.48
2019-02-28T21:50:16.799Z,100778.48
2019-02-28T21:52:45.480Z,100771.09
2019-02-28T21:55:15.303Z,100769.81
2019-02-28T21:57:43.769Z,100768.72
2019-02-28T22:00:28.338Z,100763.31
2019-02-28T22:02:56.547Z,100759.96
2019-02-28T22:05:24.748Z,100760.02
2019-02-28T22:07:53.311Z,100756.50
2019-02-28T22:10:21.510Z,100756.78
2019-02-28T22:12:50.073Z,100750.70
2019-02-28T22:15:20.200Z,100751.12
2019-02-28T22:17:48.768Z,100745.91
2019-02-28T22:20:17.248Z,100746.66
2019-02-28T22:22:45.656Z,100747.84
2019-02-28T22:25:17.880Z,100745.66
2019-02-28T22:27:46.064Z,100742.72
2019-02-28T22:30:26.901Z,100754.12
2019-02-28T22:33:13.205Z,100743.29
2019-02-28T22:35:43.047Z,100748.95
2019-02-28T22:38:11.246Z,100750.55
2019-02-28T22:40:39.434Z,100739.30
2019-02-28T22:43:08.079Z,100735.87
2019-02-28T22:45:36.291Z,100731.50
2019-02-28T22:48:04.554Z,100731.84
2019-02-28T22:50:32.735Z,100727.24
2019-02-28T22:53:00.954Z,100726.73
2019-02-28T22:55:29.131Z,100718.70
2019-02-28T22:57:57.342Z,100715.50
2019-02-28T23:00:39.087Z,100709.55
2019-02-28T23:03:08.207Z,100704.12
2019-02-28T23:05:36.406Z,100705.05
2019-02-28T23:08:04.841Z,100705.77
2019-02-28T23:10:33.035Z,100700.39
2019-02-28T23:13:01.202Z,100698.59
2019-02-28T23:15:29.391Z,100697.64
2019-02-28T23:17:57.569Z,100701.45
2019-02-28T23:20:26.018Z,100692.54
2019-02-28T23:22:54.231Z,100691.16
2019-02-28T23:25:22.401Z,100687.17
2019-02-28T23:27:50.610Z,100688.35
2019-02-28T23:30:30.531Z,100684.70
2019-02-28T23:33:00.985Z,100681.86
2019-02-28T23:35:31.951Z,100681.69
2019-02-28T23:38:00.150Z,100683.23
2019-02-28T23:40:28.324Z,100675.15
2019-02-28T23:42:56.489Z,100673.61
2019-02-28T23:45:24.684Z,100668.14
2019-02-28T23:47:52.897Z,100663.50
2019-02-28T23:50:21.093Z,100656.22
2019-02-28T23:52:49.377Z,100652.25
2019-02-28T23:55:17.950Z,100657.02
2019-02-28T23:57:46.127Z,100654.78
